Time;durP1;ratioP1;P1;durP2;ratioP2;P2;SDS_P1;SDS_P2;PMS_P1;PMS_P2;Temp;Humidity;BMP_temperature;BMP_pressure;BME280_temperature;BME280_humidity;BME280_pressure;Samples;Min_cycle;Max_cycle;Signal;HPM_P1;HPM_P2
2022/03/16 00:00:08;;;;;;;275.58;15.43;;;4.80;99.90;;;3.12;100.00;102187.47;4949791;28;20060;-70
2022/03/16 00:02:36;;;;;;;287.38;19.48;;;4.70;99.90;;;2.92;100.00;102200.34;4949363;28;20027;-70
2022/03/16 00:05:04;;;;;;;220.48;21.67;;;4.60;99.90;;;2.93;100.00;102200.31;4949058;28;20109;-70
2022/03/16 00:07:30;;;;;;;192.15;25.17;;;4.60;99.90;;;3.03;100.00;102193.47;4948030;28;20043;-69
2022/03/16 00:09:56;;;;;;;316.05;25.13;;;4.60;99.90;;;3.06;100.00;102204.75;4949562;28;20170;-70
2022/03/16 00:12:22;;;;;;;245.00;25.67;;;4.70;99.90;;;3.17;100.00;102217.88;4932476;28;20030;-70
2022/03/16 00:14:48;;;;;;;408.27;31.33;;;4.70;99.90;;;3.24;100.00;102204.06;4949856;28;20029;-70
2022/03/16 00:17:16;;;;;;;280.85;28.17;;;4.70;99.90;;;3.27;100.00;102204.06;4932303;28;20038;-70
2022/03/16 00:19:42;;;;;;;143.93;24.60;;;4.80;99.90;;;3.36;100.00;102223.22;4948387;28;20070;-70
2022/03/16 00:22:08;;;;;;;237.57;28.90;;;4.80;99.90;;;3.40;100.00;102222.38;4942593;28;20050;-69
2022/03/16 00:24:34;;;;;;;184.25;27.80;;;4.90;99.90;;;3.49;100.00;102219.84;4948522;28;20031;-70
2022/03/16 00:27:00;;;;;;;388.67;30.23;;;4.90;99.90;;;3.40;100.00;102223.25;4949792;28;20498;-69
2022/03/16 00:29:28;;;;;;;433.30;27.58;;;4.80;99.90;;;3.22;100.00;102216.19;4961661;28;20496;-70
2022/03/16 00:31:54;;;;;;;523.95;32.53;;;4.80;99.90;;;3.33;100.00;102224.09;4953276;28;20038;-70
2022/03/16 00:34:20;;;;;;;366.90;31.67;;;4.90;99.90;;;3.40;100.00;102225.84;4954748;28;20027;-70
2022/03/16 00:36:47;;;;;;;409.90;31.60;;;4.80;99.90;;;3.25;100.00;102237.03;4950623;28;20061;-70
2022/03/16 00:39:13;;;;;;;412.02;26.20;;;4.80;99.90;;;3.14;100.00;102237.81;4952301;28;20424;-70
2022/03/16 00:41:39;;;;;;;408.35;27.58;;;4.70;99.90;;;3.08;100.00;102239.50;4936035;28;20345;-70
2022/03/16 00:44:06;;;;;;;504.13;27.30;;;4.70;99.90;;;3.07;100.00;102235.16;4951084;28;20023;-70
2022/03/16 00:46:33;;;;;;;484.52;31.77;;;4.60;99.90;;;3.07;100.00;102242.97;4942183;28;20076;-70
2022/03/16 00:48:59;;;;;;;375.90;24.85;;;4.70;99.90;;;3.17;100.00;102243.03;4968425;28;20122;-70
2022/03/16 00:51:25;;;;;;;495.00;26.83;;;4.60;99.90;;;3.07;100.00;102240.34;4951671;28;20026;-70
2022/03/16 00:53:52;;;;;;;414.17;26.27;;;4.60;99.90;;;3.13;100.00;102247.31;4936678;28;20502;-70
2022/03/16 00:56:18;;;;;;;534.65;33.00;;;4.60;99.90;;;3.10;100.00;102238.66;4952944;28;20039;-70
2022/03/16 00:58:44;;;;;;;382.65;25.15;;;4.60;99.90;;;2.90;100.00;102234.13;4943868;28;20055;-70
2022/03/16 01:01:10;;;;;;;290.77;22.23;;;4.50;99.90;;;2.81;100.00;102234.91;4943982;28;20031;-71
2022/03/16 01:03:40;;;;;;;246.32;17.77;;;4.40;99.90;;;2.66;100.00;102226.97;4953327;28;20039;-70
2022/03/16 01:06:15;;;;;;;276.15;21.45;;;4.40;99.90;;;2.71;100.00;102220.06;4951180;28;20027;-70
2022/03/16 01:08:43;;;;;;;383.00;23.17;;;4.40;99.90;;;2.77;100.00;102227.06;4952599;28;20066;-70
2022/03/16 01:11:10;;;;;;;555.78;25.30;;;4.40;99.90;;;2.77;100.00;102233.16;4975861;28;20061;-70
2022/03/16 01:13:37;;;;;;;276.95;18.17;;;4.40;99.90;;;2.74;100.00;102232.22;4966583;28;20035;-71
2022/03/16 01:16:04;;;;;;;479.30;29.63;;;4.40;99.90;;;2.69;100.00;102234.78;4935580;28;20038;-70
2022/03/16 01:18:30;;;;;;;385.25;23.20;;;4.30;99.90;;;2.77;100.00;102237.47;4935515;28;20085;-69
2022/03/16 01:20:56;;;;;;;290.25;18.40;;;4.30;99.90;;;2.70;100.00;102244.34;4951565;28;20038;-70
2022/03/16 01:23:22;;;;;;;302.20;21.35;;;4.40;99.90;;;2.81;100.00;102241.88;4952587;28;20082;-70
2022/03/16 01:25:48;;;;;;;305.23;20.25;;;4.40;99.90;;;2.87;100.00;102242.78;4950728;28;20030;-70
2022/03/16 01:28:14;;;;;;;124.43;18.60;;;4.40;99.90;;;2.90;100.00;102236.75;4952719;28;20070;-70
2022/03/16 01:30:43;;;;;;;168.75;20.25;;;4.50;99.90;;;2.97;100.00;102241.13;4951084;28;20057;-70
2022/03/16 01:33:09;;;;;;;319.48;23.73;;;4.50;99.90;;;2.95;100.00;102242.84;4950860;28;20646;-71
2022/03/16 01:35:35;;;;;;;320.30;23.08;;;4.50;99.90;;;2.91;100.00;102248.88;4952349;28;20034;-70
2022/03/16 01:38:01;;;;;;;382.75;24.05;;;4.50;99.90;;;2.95;100.00;102247.19;4967982;28;20089;-70
2022/03/16 01:40:27;;;;;;;469.73;23.30;;;4.50;99.90;;;2.94;100.00;102248.03;4950358;28;20082;-70
2022/03/16 01:42:53;;;;;;;392.08;22.90;;;4.40;99.90;;;2.86;100.00;102242.75;4961016;28;20459;-70
2022/03/16 01:45:19;;;;;;;435.10;22.38;;;4.40;99.90;;;2.72;100.00;102240.03;4958294;28;20035;-70
2022/03/16 01:47:45;;;;;;;268.42;19.13;;;4.30;99.90;;;2.78;100.00;102232.28;4959633;28;20042;-70
2022/03/16 01:50:11;;;;;;;403.10;25.50;;;4.40;99.90;;;2.92;100.00;102236.75;4960620;28;20069;-71
2022/03/16 01:52:40;;;;;;;363.05;22.88;;;4.40;99.90;;;2.98;100.00;102237.69;4952703;28;20023;-70
2022/03/16 01:55:07;;;;;;;309.70;21.58;;;4.40;99.90;;;2.88;100.00;102236.72;4951903;28;20045;-70
2022/03/16 01:57:39;;;;;;;288.35;17.98;;;4.40;99.90;;;2.80;100.00;102233.16;4944124;28;20023;-70
2022/03/16 02:00:07;;;;;;;340.70;19.63;;;4.30;99.90;;;2.71;100.00;102245.22;4951079;28;20019;-71
2022/03/16 02:02:33;;;;;;;383.40;21.90;;;4.30;99.90;;;2.77;100.00;102237.47;4956822;28;20030;-71
2022/03/16 02:05:01;;;;;;;262.80;18.05;;;4.30;99.90;;;2.85;100.00;102235.81;4951147;28;20057;-70
2022/03/16 02:07:27;;;;;;;438.52;20.67;;;4.30;99.90;;;2.83;100.00;102246.22;4949884;28;20041;-70
2022/03/16 02:09:54;;;;;;;377.50;22.08;;;4.40;99.90;;;2.87;100.00;102244.50;4952160;28;20042;-71
2022/03/16 02:12:20;;;;;;;246.95;19.55;;;4.40;99.90;;;2.91;100.00;102245.41;4950406;28;20114;-70
2022/03/16 02:14:46;;;;;;;273.17;19.10;;;4.30;99.90;;;2.74;100.00;102240.03;4952775;28;20054;-71
2022/03/16 02:17:12;;;;;;;361.48;19.95;;;4.30;99.90;;;2.72;100.00;102255.66;4951243;28;20114;-70
2022/03/16 02:19:38;;;;;;;365.98;23.38;;;4.30;99.90;;;2.79;100.00;102247.03;4951204;28;20038;-71
2022/03/16 02:22:08;;;;;;;431.23;23.13;;;4.40;99.90;;;2.90;100.00;102244.53;4942193;28;20042;-71
2022/03/16 02:24:34;;;;;;;408.02;23.52;;;4.40;99.90;;;2.91;100.00;102248.88;4960943;28;20500;-70
2022/03/16 02:27:00;;;;;;;410.08;21.80;;;4.40;99.90;;;2.99;100.00;102254.16;4957355;28;20046;-70
2022/03/16 02:29:26;;;;;;;422.48;22.23;;;4.50;99.90;;;2.98;100.00;102260.22;4933765;28;20444;-70
2022/03/16 02:31:52;;;;;;;271.27;12.88;;;4.50;99.90;;;2.87;100.00;102271.41;4950771;28;20019;-71
2022/03/16 02:34:18;;;;;;;181.60;17.75;;;4.40;99.90;;;2.95;100.00;102262.78;4941664;28;20058;-71
2022/03/16 02:36:44;;;;;;;484.00;23.08;;;4.50;99.90;;;2.98;100.00;102268.00;4952678;28;20169;-71
2022/03/16 02:39:10;;;;;;;437.15;23.35;;;4.50;99.90;;;3.02;100.00;102268.09;4960230;28;20039;-70
2022/03/16 02:41:36;;;;;;;508.25;24.05;;;4.50;99.90;;;3.01;100.00;102258.50;4942565;28;20031;-70
2022/03/16 02:44:02;;;;;;;411.15;21.55;;;4.50;99.90;;;3.04;100.00;102268.94;4950515;28;20031;-70
2022/03/16 02:46:28;;;;;;;344.25;21.42;;;4.50;99.90;;;3.08;100.00;102275.91;4950921;28;20031;-70
2022/03/16 02:48:54;;;;;;;242.98;18.60;;;4.50;99.90;;;3.08;100.00;102285.47;4954410;28;20093;-70
2022/03/16 02:51:20;;;;;;;389.38;26.02;;;4.50;99.90;;;2.91;100.00;102289.63;4952167;28;20030;-71
2022/03/16 02:53:46;;;;;;;368.77;22.63;;;4.50;99.90;;;2.97;100.00;102298.38;4950376;28;20026;-70
2022/03/16 02:56:12;;;;;;;461.30;28.10;;;4.50;99.90;;;2.94;100.00;102302.66;4950445;28;20031;-70
2022/03/16 02:58:38;;;;;;;377.13;27.05;;;4.50;99.90;;;2.86;100.00;102298.25;4933101;28;20487;-71
2022/03/16 03:01:04;;;;;;;302.25;19.13;;;4.40;99.90;;;2.80;100.00;102310.34;4951198;28;20220;-70
2022/03/16 03:03:31;;;;;;;424.52;25.38;;;4.40;99.90;;;2.85;100.00;102312.16;4934037;28;20068;-71
2022/03/16 03:05:57;;;;;;;316.13;20.17;;;4.40;99.90;;;2.80;100.00;102321.59;4948008;28;20715;-70
2022/03/16 03:08:23;;;;;;;379.13;20.30;;;4.40;99.90;;;2.87;100.00;102333.84;4952779;28;20051;-71
2022/03/16 03:10:49;;;;;;;399.50;21.75;;;4.40;99.90;;;2.88;100.00;102335.59;4949293;28;20091;-72
2022/03/16 03:13:16;;;;;;;412.13;23.00;;;4.40;99.90;;;2.90;100.00;102330.41;4950631;28;20070;-71
2022/03/16 03:15:42;;;;;;;418.70;22.52;;;4.40;99.90;;;2.94;100.00;102344.28;4950082;28;20399;-70
2022/03/16 03:18:08;;;;;;;347.88;20.67;;;4.40;99.90;;;3.00;100.00;102340.06;4948262;28;20504;-71
2022/03/16 03:20:35;;;;;;;333.30;20.10;;;4.40;99.90;;;2.95;100.00;102348.66;4961936;28;20030;-71
2022/03/16 03:23:01;;;;;;;398.48;23.45;;;4.50;99.90;;;2.92;100.00;102346.91;4960986;28;20035;-71
2022/03/16 03:25:27;;;;;;;257.00;19.10;;;4.40;99.90;;;2.91;100.00;102352.94;4952368;28;20031;-72
2022/03/16 03:27:54;;;;;;;230.48;17.52;;;4.40;99.90;;;2.94;100.00;102354.72;4926210;28;20042;-71
2022/03/16 03:30:20;;;;;;;479.83;27.92;;;4.40;99.90;;;2.96;100.00;102356.50;4934049;28;20567;-71
2022/03/16 03:32:46;;;;;;;279.52;20.02;;;4.40;99.90;;;2.92;100.00;102356.44;4950387;28;20031;-72
2022/03/16 03:35:12;;;;;;;289.05;21.02;;;4.40;99.90;;;2.87;100.00;102356.38;4926244;28;20038;-71
2022/03/16 03:37:38;;;;;;;260.38;21.52;;;4.40;99.90;;;2.92;100.00;102361.66;4953325;28;20070;-71
2022/03/16 03:40:06;;;;;;;329.52;21.48;;;4.40;99.90;;;2.91;100.00;102357.28;4973319;28;20094;-72
2022/03/16 03:42:33;;;;;;;313.27;24.20;;;4.40;99.90;;;2.94;100.00;102359.91;4948365;28;20424;-71
2022/03/16 03:44:59;;;;;;;280.80;22.30;;;4.50;99.90;;;2.93;100.00;102363.38;4948870;28;20030;-71
2022/03/16 03:47:25;;;;;;;174.45;19.90;;;4.40;99.90;;;2.88;100.00;102373.75;4933086;28;20027;-72
2022/03/16 03:49:51;;;;;;;286.88;22.85;;;4.40;99.90;;;2.88;100.00;102373.75;4951380;28;20418;-71
2022/03/16 03:52:17;;;;;;;385.35;22.77;;;4.40;99.90;;;2.89;100.00;102383.28;4931840;28;20027;-71
2022/03/16 03:54:43;;;;;;;301.50;23.40;;;4.40;99.90;;;2.87;100.00;102379.78;4949649;28;20041;-71
2022/03/16 03:57:09;;;;;;;345.05;26.48;;;4.50;99.90;;;2.94;100.00;102392.03;4962357;28;20041;-71
2022/03/16 03:59:35;;;;;;;215.98;20.85;;;4.40;99.90;;;2.97;100.00;102397.25;4955527;28;20039;-71
2022/03/16 04:02:01;;;;;;;363.33;25.80;;;4.40;99.90;;;2.94;100.00;102405.03;4949716;28;22646;-71
2022/03/16 04:04:27;;;;;;;114.10;22.88;;;4.50;99.90;;;3.04;100.00;102406.00;4948346;28;20031;-71
2022/03/16 04:06:53;;;;;;;309.50;27.60;;;4.50;99.90;;;3.06;100.00;102412.09;4947992;28;20030;-71
2022/03/16 04:09:21;;;;;;;321.15;27.98;;;4.50;99.90;;;3.04;100.00;102419.88;4956518;28;20676;-72
2022/03/16 04:11:47;;;;;;;282.58;25.83;;;4.60;99.90;;;3.10;100.00;102428.66;4952160;28;20050;-71
2022/03/16 04:14:13;;;;;;;261.55;26.20;;;4.50;99.90;;;3.07;100.00;102419.94;4954091;28;20435;-71
2022/03/16 04:16:39;;;;;;;294.38;25.85;;;4.60;99.90;;;3.11;100.00;102423.47;4953888;28;20064;-71
2022/03/16 04:19:05;;;;;;;336.80;28.23;;;4.60;99.90;;;3.08;100.00;102420.81;4954291;28;20031;-71
2022/03/16 04:21:33;;;;;;;337.60;26.80;;;4.60;99.90;;;3.15;100.00;102421.75;4936423;28;20074;-71
2022/03/16 04:24:03;;;;;;;335.30;26.95;;;4.60;99.90;;;3.12;100.00;102421.72;4942464;28;20059;-71
2022/03/16 04:26:29;;;;;;;356.90;30.88;;;4.60;99.90;;;3.06;100.00;102423.38;4952642;28;20027;-71
2022/03/16 04:28:55;;;;;;;245.27;25.27;;;4.60;99.90;;;2.96;100.00;102421.56;4952046;28;20097;-71
2022/03/16 04:31:21;;;;;;;240.55;23.52;;;4.50;99.90;;;2.97;100.00;102428.50;4954315;28;20031;-71
2022/03/16 04:33:48;;;;;;;212.20;22.50;;;4.50;99.90;;;2.97;100.00;102427.63;4953154;28;20023;-71
2022/03/16 04:36:14;;;;;;;87.00;14.68;;;4.50;99.90;;;2.90;100.00;102431.88;4953325;28;20047;-71
2022/03/16 04:38:40;;;;;;;82.07;20.42;;;4.50;99.90;;;2.96;100.00;102437.16;4936313;28;20027;-71
2022/03/16 04:41:06;;;;;;;138.15;22.90;;;4.50;99.90;;;3.04;100.00;102434.63;4953992;28;20053;-71
2022/03/16 04:43:32;;;;;;;104.53;20.60;;;4.50;99.90;;;3.02;100.00;102445.06;4952747;28;20047;-71
2022/03/16 04:45:58;;;;;;;131.02;22.15;;;4.50;99.90;;;3.03;100.00;102445.91;4937800;28;20058;-72
2022/03/16 04:48:24;;;;;;;147.38;23.60;;;4.60;99.90;;;3.10;100.00;102454.66;4954366;28;20046;-71
2022/03/16 04:50:50;;;;;;;79.97;20.55;;;4.60;99.90;;;3.14;100.00;102452.13;4952490;28;20035;-71
2022/03/16 04:53:16;;;;;;;97.45;20.27;;;4.60;99.90;;;3.24;100.00;102458.28;4953904;28;20491;-72
2022/03/16 04:55:42;;;;;;;94.95;21.25;;;4.60;99.90;;;3.20;100.00;102470.41;4936780;28;20073;-71
2022/03/16 04:58:09;;;;;;;91.43;21.08;;;4.70;99.90;;;3.21;100.00;102479.09;4954740;28;20431;-71
2022/03/16 05:00:37;;;;;;;68.50;19.05;;;4.60;99.90;;;3.11;100.00;102472.03;4939167;28;20019;-71
2022/03/16 05:03:04;;;;;;;77.72;19.75;;;4.60;99.90;;;3.13;100.00;102472.91;4960532;28;20030;-72
2022/03/16 05:05:31;;;;;;;78.55;17.55;;;4.60;99.90;;;3.06;100.00;102480.63;4951496;28;20352;-71
2022/03/16 05:07:58;;;;;;;83.00;19.30;;;4.60;99.90;;;3.14;100.00;102487.69;4950599;28;20118;-71
2022/03/16 05:10:24;;;;;;;66.35;15.80;;;4.60;99.90;;;3.13;100.00;102493.75;4953608;28;20053;-71
2022/03/16 05:12:50;;;;;;;55.25;13.38;;;4.50;99.90;;;2.86;100.00;102485.59;4950712;28;20126;-72
2022/03/16 05:15:19;;;;;;;53.25;14.60;;;4.50;99.90;;;2.85;100.00;102490.78;4952429;28;20058;-71
2022/03/16 05:17:47;;;;;;;57.20;15.55;;;4.50;99.90;;;2.88;100.00;102488.22;4952458;28;20416;-71
2022/03/16 05:20:15;;;;;;;59.80;15.23;;;4.50;99.90;;;2.92;100.00;102491.75;4950520;28;20904;-71
2022/03/16 05:22:53;;;;;;;57.63;15.25;;;4.50;99.90;;;3.00;100.00;102491.00;4950959;28;20035;-72
2022/03/16 05:25:25;;;;;;;62.72;15.80;;;4.50;99.90;;;2.96;100.00;102504.81;4953565;28;20341;-71
2022/03/16 05:27:53;;;;;;;58.78;15.60;;;4.50;99.90;;;3.08;100.00;102499.75;4949787;28;20057;-72
2022/03/16 05:30:22;;;;;;;65.35;15.73;;;4.60;99.90;;;3.16;100.00;102501.59;4952609;28;20039;-72
2022/03/16 05:32:54;;;;;;;62.38;15.73;;;4.60;99.90;;;3.15;100.00;102505.03;4943152;28;20050;-71
2022/03/16 05:35:24;;;;;;;73.65;16.77;;;4.60;99.90;;;3.23;100.00;102501.69;4950836;28;20182;-71
2022/03/16 05:37:50;;;;;;;76.50;18.52;;;4.70;99.90;;;3.32;100.00;102505.25;4943034;28;20377;-71
2022/03/16 05:40:16;;;;;;;80.47;18.60;;;4.70;99.90;;;3.31;100.00;102507.00;4962141;28;20070;-71
2022/03/16 05:42:42;;;;;;;78.40;17.95;;;4.70;99.90;;;3.33;100.00;102512.22;4956977;28;20508;-71
2022/03/16 05:45:10;;;;;;;76.05;17.52;;;4.80;99.90;;;3.31;100.00;102506.13;4945537;28;23630;-71
2022/03/16 05:47:36;;;;;;;62.30;16.13;;;4.70;99.90;;;3.19;100.00;102504.22;4954111;28;20031;-72
2022/03/16 05:50:04;;;;;;;56.53;13.98;;;4.60;99.90;;;3.04;100.00;102502.31;4964285;28;20042;-71
2022/03/16 05:52:31;;;;;;;64.65;17.60;;;4.60;99.90;;;3.11;100.00;102508.47;4951030;28;20031;-71
2022/03/16 05:54:59;;;;;;;73.00;17.67;;;4.60;99.90;;;3.19;100.00;102512.91;4959341;28;20203;-72
2022/03/16 05:57:26;;;;;;;65.57;15.77;;;4.60;99.90;;;3.13;100.00;102517.16;4949863;28;20042;-71
2022/03/16 05:59:52;;;;;;;57.00;14.85;;;4.60;99.90;;;3.02;100.00;102523.13;4952703;28;20023;-72
2022/03/16 06:02:19;;;;;;;57.15;15.30;;;4.60;99.90;;;3.02;100.00;102527.44;4950996;28;20122;-71
2022/03/16 06:04:46;;;;;;;75.15;14.80;;;4.60;99.90;;;3.01;100.00;102528.31;4950961;28;20117;-71
2022/03/16 06:07:13;;;;;;;64.35;13.57;;;4.50;99.90;;;2.95;100.00;102528.22;4950690;28;20772;-72
2022/03/16 06:09:40;;;;;;;80.50;15.80;;;4.50;99.90;;;2.97;100.00;102522.16;4951401;28;20415;-72
2022/03/16 06:12:07;;;;;;;84.75;17.55;;;4.50;99.90;;;2.94;100.00;102529.94;4949922;28;20035;-71
2022/03/16 06:14:33;;;;;;;87.05;19.52;;;4.50;99.90;;;2.90;100.00;102530.75;4976592;28;20042;-71
2022/03/16 06:16:59;;;;;;;83.97;20.30;;;4.50;99.90;;;2.96;100.00;102532.53;4949428;28;20034;-71
2022/03/16 06:19:25;;;;;;;92.50;17.90;;;4.40;99.90;;;2.79;100.00;102541.00;4950836;28;20047;-72
2022/03/16 06:21:51;;;;;;;76.70;15.45;;;4.40;99.90;;;2.82;100.00;102537.56;4953737;28;20455;-72
2022/03/16 06:24:17;;;;;;;73.82;16.38;;;4.30;99.90;;;2.71;100.00;102544.34;4970951;28;20035;-72
2022/03/16 06:26:43;;;;;;;93.22;15.35;;;4.30;99.90;;;2.77;100.00;102540.09;4951980;28;20027;-71
2022/03/16 06:29:10;;;;;;;78.15;18.00;;;4.30;99.90;;;2.80;100.00;102540.13;4950286;28;20163;-71
2022/03/16 06:31:36;;;;;;;74.85;16.23;;;4.30;99.90;;;2.76;100.00;102543.53;4949123;28;20041;-71
2022/03/16 06:34:03;;;;;;;63.03;14.02;;;4.30;99.90;;;2.77;100.00;102547.03;4951859;28;20391;-71
2022/03/16 06:36:29;;;;;;;109.85;16.52;;;4.30;99.90;;;2.76;100.00;102543.53;4949177;28;20038;-71
2022/03/16 06:38:56;;;;;;;85.68;13.85;;;4.30;99.90;;;2.68;100.00;102545.19;4950724;28;20117;-72
2022/03/16 06:41:23;;;;;;;70.25;16.25;;;4.30;99.90;;;2.74;100.00;102550.44;4952265;28;20055;-71
2022/03/16 06:43:50;;;;;;;92.10;15.88;;;4.30;99.90;;;2.83;100.00;102550.63;4955142;28;20090;-72
2022/03/16 06:46:16;;;;;;;100.25;16.05;;;4.30;99.90;;;2.80;100.00;102544.47;4950999;28;20027;-74
2022/03/16 06:48:42;;;;;;;77.78;11.43;;;4.30;99.90;;;2.72;100.00;102540.88;4950592;28;20047;-72
2022/03/16 06:51:08;;;;;;;85.20;15.15;;;4.30;99.90;;;2.62;100.00;102535.53;4949922;28;20038;-71
2022/03/16 06:53:36;;;;;;;54.40;13.43;;;4.20;99.90;;;2.63;100.00;102541.63;4948839;28;20067;-71
2022/03/16 06:56:03;;;;;;;68.10;12.85;;;4.10;99.90;;;2.54;100.00;102544.09;4949339;28;20056;-71
2022/03/16 06:58:31;;;;;;;72.40;13.77;;;4.20;99.90;;;2.63;100.00;102534.69;4948543;28;20551;-72
2022/03/16 07:00:57;;;;;;;87.88;13.38;;;4.10;99.90;;;2.54;100.00;102547.56;4944793;28;20044;-71
2022/03/16 07:03:23;;;;;;;59.15;14.07;;;4.10;99.90;;;2.51;100.00;102537.13;4949604;28;20019;-72
2022/03/16 07:05:49;;;;;;;59.55;12.50;;;4.10;99.90;;;2.51;100.00;102531.91;4949282;28;20046;-71
2022/03/16 07:08:16;;;;;;;73.18;11.88;;;4.20;99.90;;;2.68;100.00;102539.97;4951001;28;20026;-71
2022/03/16 07:10:44;;;;;;;82.13;13.60;;;4.30;99.90;;;2.76;100.00;102545.28;4949991;28;20046;-72
2022/03/16 07:13:14;;;;;;;82.47;12.43;;;4.20;99.90;;;2.75;100.00;102535.75;4948224;28;20049;-71
2022/03/16 07:15:42;;;;;;;82.90;13.27;;;4.20;99.90;;;2.68;100.00;102539.97;4935017;28;20019;-72
2022/03/16 07:18:09;;;;;;;122.97;14.18;;;4.30;99.90;;;2.75;100.00;102535.75;4949609;28;20027;-71
2022/03/16 07:20:37;;;;;;;166.55;15.85;;;4.30;99.90;;;2.79;100.00;102548.81;4951278;28;20365;-72
2022/03/16 07:23:06;;;;;;;88.18;14.27;;;4.30;99.90;;;2.96;100.00;102541.25;4950561;28;20475;-72
2022/03/16 07:25:33;;;;;;;145.90;17.67;;;4.40;99.90;;;2.90;100.00;102554.19;4949912;28;20055;-71
2022/03/16 07:27:59;;;;;;;77.15;15.15;;;4.50;99.90;;;3.11;100.00;102557.91;4966084;28;20086;-71
2022/03/16 07:30:26;;;;;;;72.85;14.77;;;4.50;99.90;;;3.15;100.00;102562.31;4933823;28;20062;-71
2022/03/16 07:32:52;;;;;;;140.45;15.23;;;4.60;99.90;;;3.04;100.00;102560.44;4950004;28;20082;-71
2022/03/16 07:35:18;;;;;;;117.85;14.38;;;4.50;99.90;;;2.91;100.00;102568.91;4950693;28;20039;-72
2022/03/16 07:37:44;;;;;;;195.95;15.25;;;4.50;99.90;;;2.94;100.00;102561.19;4948675;28;20034;-71
2022/03/16 07:40:11;;;;;;;80.28;14.45;;;4.40;99.90;;;2.94;100.00;102563.78;4948650;28;20447;-71
2022/03/16 07:42:37;;;;;;;124.72;12.68;;;4.40;99.90;;;2.78;100.00;102561.78;4935143;28;20038;-72
2022/03/16 07:45:05;;;;;;;152.02;12.38;;;4.40;99.90;;;2.86;100.00;102557.59;4952732;28;20031;-72
2022/03/16 07:47:31;;;;;;;184.18;12.45;;;4.30;99.90;;;2.80;100.00;102554.88;4952758;28;20487;-71
2022/03/16 07:49:57;;;;;;;197.52;15.13;;;4.40;99.90;;;2.96;100.00;102556.88;4947650;28;20050;-72
2022/03/16 07:52:24;;;;;;;108.30;12.35;;;4.50;99.90;;;3.10;100.00;102558.78;4977455;28;20041;-71
2022/03/16 07:54:50;;;;;;;188.15;14.52;;;4.50;99.90;;;3.10;100.00;102564.00;4951939;28;20518;-72
2022/03/16 07:57:16;;;;;;;164.63;11.43;;;4.50;99.90;;;2.91;100.00;102565.44;4956973;28;20031;-71
2022/03/16 07:59:43;;;;;;;208.02;13.40;;;4.50;99.90;;;2.93;100.00;102575.03;4952599;28;20506;-71
2022/03/16 08:02:14;;;;;;;226.07;13.77;;;4.40;99.90;;;2.85;100.00;102574.03;4951133;28;20035;-71
2022/03/16 08:04:40;;;;;;;203.25;12.57;;;4.50;99.90;;;3.06;100.00;102571.75;4954373;28;20039;-72
2022/03/16 08:07:06;;;;;;;146.32;14.63;;;4.50;99.90;;;3.13;100.00;102580.50;4946650;28;20593;-72
2022/03/16 08:09:32;;;;;;;107.38;11.35;;;4.60;99.90;;;3.21;100.00;102578.88;4974101;28;20041;-72
2022/03/16 08:11:58;;;;;;;64.10;11.60;;;4.70;99.90;;;3.45;100.00;102583.53;4953074;28;20019;-71
2022/03/16 08:14:23;;;;;;;23.60;5.97;;;4.70;99.90;;;3.26;100.00;102600.66;4952828;28;20078;-71
2022/03/16 08:16:49;;;;;;;22.40;7.10;;;4.80;99.90;;;3.33;100.00;102604.22;4953090;28;20113;-71
2022/03/16 08:19:16;;;;;;;70.20;9.48;;;4.70;99.90;;;3.20;100.00;102607.53;4935699;28;20023;-72
2022/03/16 08:21:42;;;;;;;78.57;9.18;;;4.70;99.90;;;3.22;100.00;102608.41;4954087;28;20440;-71
2022/03/16 08:24:08;;;;;;;86.60;9.98;;;4.80;99.90;;;3.35;100.00;102605.13;4952451;28;20122;-71
2022/03/16 08:26:35;;;;;;;112.22;10.00;;;4.80;99.90;;;3.46;100.00;102595.72;4965632;28;20108;-71
2022/03/16 08:29:01;;;;;;;152.25;10.35;;;4.80;99.90;;;3.37;100.00;102594.72;4956154;28;20050;-71
2022/03/16 08:31:27;;;;;;;186.90;13.07;;;4.80;99.90;;;3.39;100.00;102603.41;4952248;28;20033;-72
2022/03/16 08:33:53;;;;;;;66.82;11.40;;;4.90;99.90;;;3.62;100.00;102595.91;4936272;28;20031;-72
2022/03/16 08:36:19;;;;;;;83.00;11.18;;;5.00;99.90;;;3.65;100.00;102601.13;4952196;28;20050;-72
2022/03/16 08:38:44;;;;;;;60.85;11.10;;;5.10;99.90;;;3.92;100.00;102613.63;4954087;28;20058;-71
2022/03/16 08:41:10;;;;;;;42.05;10.30;;;5.10;99.90;;;3.72;100.00;102608.19;4955870;28;20027;-71
2022/03/16 08:43:38;;;;;;;57.90;11.48;;;5.10;99.90;;;3.58;100.00;102605.41;4934476;28;20170;-71
2022/03/16 08:46:05;;;;;;;65.53;9.68;;;5.00;99.90;;;3.44;100.00;102610.44;4954214;28;20034;-71
2022/03/16 08:48:31;;;;;;;26.83;8.65;;;4.90;99.90;;;3.43;100.00;102608.69;4936155;28;20150;-72
2022/03/16 08:50:57;;;;;;;27.15;9.05;;;5.00;99.90;;;3.74;100.00;102608.19;4952338;28;20034;-72
2022/03/16 08:53:24;;;;;;;27.58;10.45;;;5.20;99.90;;;3.95;100.00;102610.19;4951093;28;20488;-71
2022/03/16 08:55:50;;;;;;;39.42;11.38;;;5.30;99.90;;;4.11;100.00;102614.72;4952220;28;20038;-72
2022/03/16 08:58:17;;;;;;;61.65;12.63;;;5.40;99.90;;;4.06;100.00;102614.66;4954042;28;20031;-72
2022/03/16 09:00:44;;;;;;;57.03;11.73;;;5.40;99.90;;;4.02;100.00;102612.00;4953415;28;20499;-71
2022/03/16 09:03:10;;;;;;;62.13;12.02;;;5.30;99.90;;;3.79;100.00;102610.00;4934596;28;20066;-72
2022/03/16 09:05:37;;;;;;;68.70;11.43;;;5.40;99.90;;;3.98;100.00;102611.09;4952951;28;20027;-71
2022/03/16 09:08:03;;;;;;;64.03;15.68;;;5.30;99.90;;;3.78;100.00;102613.47;4964611;28;20647;-71
2022/03/16 09:10:29;;;;;;;78.00;25.40;;;5.20;99.90;;;3.72;100.00;102605.59;4951509;28;20046;-71
2022/03/16 09:12:55;;;;;;;37.78;12.15;;;5.30;99.90;;;3.92;100.00;102610.16;4953330;28;20061;-71
2022/03/16 09:15:22;;;;;;;38.15;11.93;;;5.30;99.90;;;3.91;100.00;102614.50;4952132;28;20023;-71
2022/03/16 09:17:48;;;;;;;37.05;8.65;;;5.40;99.90;;;3.90;100.00;102616.22;4951864;28;20075;-71
2022/03/16 09:20:13;;;;;;;28.23;10.07;;;5.40;99.90;;;3.92;100.00;102615.38;4953472;28;20214;-71
2022/03/16 09:22:40;;;;;;;38.88;11.45;;;5.30;99.90;;;3.92;100.00;102611.03;4953410;28;20069;-71
2022/03/16 09:25:07;;;;;;;50.80;11.43;;;5.30;99.90;;;3.94;100.00;102616.25;4953254;28;20038;-71
2022/03/16 09:27:37;;;;;;;60.72;10.98;;;5.30;99.90;;;3.90;100.00;102626.63;4951136;28;20103;-71
2022/03/16 09:30:05;;;;;;;43.05;11.90;;;5.40;99.90;;;4.06;100.00;102632.00;4952091;28;20034;-71
2022/03/16 09:32:33;;;;;;;31.17;12.00;;;5.50;99.90;;;4.34;100.00;102629.69;4951616;28;20220;-71
2022/03/16 09:35:00;;;;;;;85.20;10.57;;;5.60;99.90;;;4.23;100.00;102633.09;4953585;28;20027;-72
2022/03/16 09:37:27;;;;;;;50.40;12.90;;;5.60;99.90;;;4.18;100.00;102637.38;4963628;28;20118;-71
2022/03/16 09:39:52;;;;;;;32.67;11.50;;;5.40;99.90;;;3.84;100.00;102639.59;4957944;28;20054;-71
2022/03/16 09:42:22;;;;;;;31.83;10.07;;;5.40;99.90;;;3.90;100.00;102638.78;4952419;28;20022;-71
2022/03/16 09:44:53;;;;;;;37.72;11.10;;;5.40;99.90;;;3.89;100.00;102642.28;4951351;28;20035;-72
2022/03/16 09:47:22;;;;;;;33.53;11.15;;;5.40;99.90;;;4.06;100.00;102658.09;4954569;28;20031;-71
2022/03/16 09:49:48;;;;;;;32.08;11.07;;;5.40;99.90;;;3.87;100.00;102650.06;4952036;28;20551;-71
2022/03/16 09:52:15;;;;;;;50.10;12.80;;;5.50;99.90;;;4.10;100.00;102655.56;4950975;28;20160;-72
2022/03/16 09:54:41;;;;;;;46.97;13.02;;;5.50;99.90;;;4.17;100.00;102658.19;4935492;28;20031;-71
2022/03/16 09:57:07;;;;;;;42.47;13.98;;;5.60;99.90;;;4.30;100.00;102658.38;4953323;28;20116;-71
2022/03/16 09:59:33;;;;;;;33.33;13.65;;;5.70;99.90;;;4.41;100.00;102662.81;4951456;28;20157;-72